sensor_id;sensor_type;location;lat;lon;timestamp;pressure;altitude;pressure_sealevel;temperature;humidity
28079;BME280;15388;42.238;24.684;2023-04-23T00:01:17;99493.88;;;13.14;100.00
28079;BME280;15388;42.238;24.684;2023-04-23T00:03:43;99496.03;;;13.10;100.00
28079;BME280;15388;42.238;24.684;2023-04-23T00:06:09;99495.81;;;13.04;100.00
28079;BME280;15388;42.238;24.684;2023-04-23T00:08:38;99500.31;;;13.03;100.00
28079;BME280;15388;42.238;24.684;2023-04-23T00:11:04;99503.13;;;13.02;100.00
28079;BME280;15388;42.238;24.684;2023-04-23T00:13:30;99508.78;;;12.98;100.00
28079;BME280;15388;42.238;24.684;2023-04-23T00:15:56;99493.34;;;12.92;100.00
28079;BME280;15388;42.238;24.684;2023-04-23T00:18:22;99500.69;;;12.90;100.00
28079;BME280;15388;42.238;24.684;2023-04-23T00:20:48;99498.69;;;12.92;100.00
28079;BME280;15388;42.238;24.684;2023-04-23T00:23:13;99499.03;;;12.89;100.00
28079;BME280;15388;42.238;24.684;2023-04-23T00:25:38;99504.66;;;12.86;100.00
28079;BME280;15388;42.238;24.684;2023-04-23T00:28:04;99464.81;;;12.56;100.00
28079;BME280;15388;42.238;24.684;2023-04-23T00:30:29;99498.31;;;12.69;100.00
28079;BME280;15388;42.238;24.684;2023-04-23T00:32:55;99501.81;;;12.69;100.00
28079;BME280;15388;42.238;24.684;2023-04-23T00:35:20;99496.13;;;12.64;100.00
28079;BME280;15388;42.238;24.684;2023-04-23T00:37:46;99500.91;;;12.60;100.00
28079;BME280;15388;42.238;24.684;2023-04-23T00:40:12;99507.38;;;12.58;100.00
28079;BME280;15388;42.238;24.684;2023-04-23T00:42:38;99511.34;;;12.54;100.00
28079;BME280;15388;42.238;24.684;2023-04-23T00:45:08;99500.41;;;12.47;100.00
28079;BME280;15388;42.238;24.684;2023-04-23T00:47:34;99509.47;;;12.36;100.00
28079;BME280;15388;42.238;24.684;2023-04-23T00:50:00;99511.16;;;12.37;100.00
28079;BME280;15388;42.238;24.684;2023-04-23T00:52:25;99512.31;;;12.34;100.00
28079;BME280;15388;42.238;24.684;2023-04-23T00:54:53;99513.44;;;12.32;100.00
28079;BME280;15388;42.238;24.684;2023-04-23T00:57:18;99510.38;;;12.27;100.00
28079;BME280;15388;42.238;24.684;2023-04-23T00:59:44;99520.25;;;12.16;100.00
28079;BME280;15388;42.238;24.684;2023-04-23T01:02:10;99516.66;;;12.07;100.00
28079;BME280;15388;42.238;24.684;2023-04-23T01:04:36;99519.72;;;12.03;100.00
28079;BME280;15388;42.238;24.684;2023-04-23T01:07:02;99509.50;;;11.98;100.00
28079;BME280;15388;42.238;24.684;2023-04-23T01:09:28;99515.34;;;12.02;100.00
28079;BME280;15388;42.238;24.684;2023-04-23T01:11:54;99511.06;;;11.91;100.00
28079;BME280;15388;42.238;24.684;2023-04-23T01:14:19;99518.63;;;11.95;100.00
28079;BME280;15388;42.238;24.684;2023-04-23T01:16:45;99518.63;;;11.95;100.00
28079;BME280;15388;42.238;24.684;2023-04-23T01:19:11;99516.53;;;11.89;100.00
28079;BME280;15388;42.238;24.684;2023-04-23T01:21:37;99515.53;;;11.90;100.00
28079;BME280;15388;42.238;24.684;2023-04-23T01:24:06;99521.78;;;11.81;100.00
28079;BME280;15388;42.238;24.684;2023-04-23T01:26:32;99519.09;;;11.81;100.00
28079;BME280;15388;42.238;24.684;2023-04-23T01:28:59;99520.06;;;11.80;100.00
28079;BME280;15388;42.238;24.684;2023-04-23T01:31:26;99520.38;;;11.77;100.00
28079;BME280;15388;42.238;24.684;2023-04-23T01:33:52;99518.97;;;11.72;100.00
28079;BME280;15388;42.238;24.684;2023-04-23T01:36:22;99518.28;;;11.70;100.00
28079;BME280;15388;42.238;24.684;2023-04-23T01:38:48;99523.47;;;11.72;100.00
28079;BME280;15388;42.238;24.684;2023-04-23T01:41:14;99533.28;;;11.71;100.00
28079;BME280;15388;42.238;24.684;2023-04-23T01:43:41;99515.34;;;11.74;100.00
28079;BME280;15388;42.238;24.684;2023-04-23T01:46:07;99523.47;;;11.72;100.00
28079;BME280;15388;42.238;24.684;2023-04-23T01:48:32;99525.16;;;11.73;100.00
28079;BME280;15388;42.238;24.684;2023-04-23T01:50:59;99532.00;;;11.76;100.00
28079;BME280;15388;42.238;24.684;2023-04-23T01:53:25;99525.00;;;11.75;100.00
28079;BME280;15388;42.238;24.684;2023-04-23T01:55:53;99524.28;;;11.72;100.00
28079;BME280;15388;42.238;24.684;2023-04-23T01:58:19;99527.97;;;11.71;100.00
28079;BME280;15388;42.238;24.684;2023-04-23T02:00:45;99534.97;;;11.72;100.00
28079;BME280;15388;42.238;24.684;2023-04-23T02:03:10;99527.97;;;11.71;100.00
28079;BME280;15388;42.238;24.684;2023-04-23T02:05:38;99528.66;;;11.74;100.00
28079;BME280;15388;42.238;24.684;2023-04-23T02:08:04;99539.47;;;11.72;100.00
28079;BME280;15388;42.238;24.684;2023-04-23T02:10:30;99533.84;;;11.65;100.00
28079;BME280;15388;42.238;24.684;2023-04-23T02:12:57;99531.34;;;11.64;100.00
28079;BME280;15388;42.238;24.684;2023-04-23T02:15:22;99537.38;;;11.66;100.00
28079;BME280;15388;42.238;24.684;2023-04-23T02:17:48;99535.84;;;11.63;100.00
28079;BME280;15388;42.238;24.684;2023-04-23T02:20:16;99535.97;;;11.62;100.00
28079;BME280;15388;42.238;24.684;2023-04-23T02:22:42;99534.16;;;11.62;100.00
28079;BME280;15388;42.238;24.684;2023-04-23T02:25:09;99534.44;;;11.59;100.00
28079;BME280;15388;42.238;24.684;2023-04-23T02:27:35;99539.94;;;11.57;100.00
28079;BME280;15388;42.238;24.684;2023-04-23T02:30:00;99546.81;;;11.40;100.00
28079;BME280;15388;42.238;24.684;2023-04-23T02:32:26;99543.59;;;11.27;100.00
28079;BME280;15388;42.238;24.684;2023-04-23T02:34:52;99550.19;;;11.13;100.00
28079;BME280;15388;42.238;24.684;2023-04-23T02:37:17;99541.22;;;10.84;100.00
28079;BME280;15388;42.238;24.684;2023-04-23T02:39:43;99548.19;;;10.85;100.00
28079;BME280;15388;42.238;24.684;2023-04-23T02:42:08;99546.50;;;10.64;100.00
28079;BME280;15388;42.238;24.684;2023-04-23T02:44:34;99547.84;;;10.49;100.00
28079;BME280;15388;42.238;24.684;2023-04-23T02:46:59;99553.34;;;10.26;100.00
28079;BME280;15388;42.238;24.684;2023-04-23T02:49:25;99551.84;;;10.02;100.00
28079;BME280;15388;42.238;24.684;2023-04-23T02:51:50;99550.09;;;9.81;100.00
28079;BME280;15388;42.238;24.684;2023-04-23T02:54:16;99542.63;;;9.75;100.00
28079;BME280;15388;42.238;24.684;2023-04-23T02:56:42;99554.50;;;9.71;100.00
28079;BME280;15388;42.238;24.684;2023-04-23T02:59:07;99548.78;;;9.75;100.00
28079;BME280;15388;42.238;24.684;2023-04-23T03:01:32;99553.69;;;9.80;100.00
28079;BME280;15388;42.238;24.684;2023-04-23T03:03:58;99558.41;;;9.66;100.00
28079;BME280;15388;42.238;24.684;2023-04-23T03:06:24;99560.06;;;9.67;100.00
28079;BME280;15388;42.238;24.684;2023-04-23T03:08:49;99559.09;;;9.68;100.00
28079;BME280;15388;42.238;24.684;2023-04-23T03:11:15;99564.03;;;9.73;100.00
28079;BME280;15388;42.238;24.684;2023-04-23T03:13:40;99577.19;;;9.75;100.00
28079;BME280;15388;42.238;24.684;2023-04-23T03:16:06;99563.16;;;9.73;100.00
28079;BME280;15388;42.238;24.684;2023-04-23T03:18:31;99562.00;;;9.65;100.00
28079;BME280;15388;42.238;24.684;2023-04-23T03:20:57;99565.44;;;9.77;100.00
28079;BME280;15388;42.238;24.684;2023-04-23T03:23:23;99571.47;;;9.79;100.00
28079;BME280;15388;42.238;24.684;2023-04-23T03:25:49;99572.50;;;9.88;100.00
28079;BME280;15388;42.238;24.684;2023-04-23T03:28:14;99570.28;;;9.93;100.00
28079;BME280;15388;42.238;24.684;2023-04-23T03:30:40;99569.75;;;10.00;100.00
28079;BME280;15388;42.238;24.684;2023-04-23T03:33:05;99576.94;;;10.09;100.00
28079;BME280;15388;42.238;24.684;2023-04-23T03:35:33;99566.16;;;10.11;100.00
28079;BME280;15388;42.238;24.684;2023-04-23T03:37:58;99571.81;;;10.17;100.00
28079;BME280;15388;42.238;24.684;2023-04-23T03:40:23;99570.31;;;10.25;100.00
28079;BME280;15388;42.238;24.684;2023-04-23T03:42:49;99574.38;;;10.29;100.00
28079;BME280;15388;42.238;24.684;2023-04-23T03:45:15;99567.22;;;10.29;100.00
28079;BME280;15388;42.238;24.684;2023-04-23T03:47:41;99570.34;;;10.35;100.00
28079;BME280;15388;42.238;24.684;2023-04-23T03:50:08;99572.31;;;10.42;100.00
28079;BME280;15388;42.238;24.684;2023-04-23T03:52:34;99565.03;;;10.44;100.00
28079;BME280;15388;42.238;24.684;2023-04-23T03:55:00;99569.13;;;10.49;100.00
28079;BME280;15388;42.238;24.684;2023-04-23T03:57:25;99569.59;;;10.54;100.00
28079;BME280;15388;42.238;24.684;2023-04-23T03:59:52;99568.59;;;10.55;100.00
28079;BME280;15388;42.238;24.684;2023-04-23T04:02:18;99571.41;;;10.63;100.00
28079;BME280;15388;42.238;24.684;2023-04-23T04:04:43;99582.50;;;10.68;100.00
28079;BME280;15388;42.238;24.684;2023-04-23T04:07:10;99583.47;;;10.67;100.00
28079;BME280;15388;42.238;24.684;2023-04-23T04:09:36;99587.84;;;10.68;100.00
28079;BME280;15388;42.238;24.684;2023-04-23T04:12:02;99588.78;;;10.57;100.00
28079;BME280;15388;42.238;24.684;2023-04-23T04:14:30;99595.78;;;10.58;100.00
28079;BME280;15388;42.238;24.684;2023-04-23T04:16:56;99587.38;;;10.63;100.00
28079;BME280;15388;42.238;24.684;2023-04-23T04:19:22;99596.63;;;10.69;100.00
28079;BME280;15388;42.238;24.684;2023-04-23T04:21:47;99602.53;;;10.63;100.00
28079;BME280;15388;42.238;24.684;2023-04-23T04:24:13;99612.31;;;10.62;100.00
28079;BME280;15388;42.238;24.684;2023-04-23T04:26:38;99602.53;;;10.63;100.00
28079;BME280;15388;42.238;24.684;2023-04-23T04:29:04;99609.50;;;10.54;100.00
28079;BME280;15388;42.238;24.684;2023-04-23T04:31:30;99617.91;;;10.59;100.00
28079;BME280;15388;42.238;24.684;2023-04-23T04:33:57;99613.56;;;10.58;100.00
28079;BME280;15388;42.238;24.684;2023-04-23T04:36:23;99618.16;;;10.46;100.00
28079;BME280;15388;42.238;24.684;2023-04-23T04:38:52;99622.69;;;10.55;100.00
28079;BME280;15388;42.238;24.684;2023-04-23T04:41:21;99630.19;;;10.50;100.00
28079;BME280;15388;42.238;24.684;2023-04-23T04:43:47;99638.84;;;10.42;100.00
28079;BME280;15388;42.238;24.684;2023-04-23T04:46:13;99639.66;;;10.43;100.00
28079;BME280;15388;42.238;24.684;2023-04-23T04:48:38;99636.31;;;10.41;100.00
28079;BME280;15388;42.238;24.684;2023-04-23T04:51:04;99635.69;;;10.27;100.00
28079;BME280;15388;42.238;24.684;2023-04-23T04:53:29;99641.66;;;10.19;100.00
28079;BME280;15388;42.238;24.684;2023-04-23T04:55:55;99635.94;;;10.24;100.00
28079;BME280;15388;42.238;24.684;2023-04-23T04:58:20;99643.78;;;10.26;100.00
28079;BME280;15388;42.238;24.684;2023-04-23T05:00:46;99642.38;;;10.22;100.00
28079;BME280;15388;42.238;24.684;2023-04-23T05:03:16;99646.09;;;10.40;100.00
28079;BME280;15388;42.238;24.684;2023-04-23T05:05:43;99644.75;;;10.46;100.00
28079;BME280;15388;42.238;24.684;2023-04-23T05:08:09;99642.84;;;10.58;100.00
28079;BME280;15388;42.238;24.684;2023-04-23T05:10:35;99639.53;;;10.66;100.00
28079;BME280;15388;42.238;24.684;2023-04-23T05:13:00;99645.16;;;10.82;100.00
28079;BME280;15388;42.238;24.684;2023-04-23T05:15:26;99641.44;;;10.95;100.00
28079;BME280;15388;42.238;24.684;2023-04-23T05:17:52;99642.56;;;11.12;100.00
28079;BME280;15388;42.238;24.684;2023-04-23T05:20:18;99648.50;;;11.26;100.00
28079;BME280;15388;42.238;24.684;2023-04-23T05:22:45;99647.22;;;11.30;100.00
28079;BME280;15388;42.238;24.684;2023-04-23T05:25:12;99651.69;;;11.49;100.00
28079;BME280;15388;42.238;24.684;2023-04-23T05:27:38;99652.56;;;11.59;100.00
28079;BME280;15388;42.238;24.684;2023-04-23T05:30:05;99652.56;;;11.79;100.00
28079;BME280;15388;42.238;24.684;2023-04-23T05:32:32;99651.69;;;11.89;100.00
28079;BME280;15388;42.238;24.684;2023-04-23T05:34:58;99665.84;;;11.99;100.00
28079;BME280;15388;42.238;24.684;2023-04-23T05:37:27;99663.63;;;11.75;100.00
28079;BME280;15388;42.238;24.684;2023-04-23T05:39:53;99655.91;;;11.71;100.00
28079;BME280;15388;42.238;24.684;2023-04-23T05:42:18;99664.19;;;11.88;100.00
28079;BME280;15388;42.238;24.684;2023-04-23T05:44:43;99667.41;;;11.92;100.00
28079;BME280;15388;42.238;24.684;2023-04-23T05:47:11;99671.75;;;12.03;100.00
28079;BME280;15388;42.238;24.684;2023-04-23T05:49:36;99670.78;;;12.14;100.00
28079;BME280;15388;42.238;24.684;2023-04-23T05:52:02;99674.13;;;11.96;100.00
28079;BME280;15388;42.238;24.684;2023-04-23T05:54:28;99673.03;;;12.08;100.00
28079;BME280;15388;42.238;24.684;2023-04-23T05:56:53;99672.19;;;12.08;100.00
28079;BME280;15388;42.238;24.684;2023-04-23T05:59:19;99680.31;;;12.16;100.00
28079;BME280;15388;42.238;24.684;2023-04-23T06:01:45;99677.81;;;12.15;100.00
28079;BME280;15388;42.238;24.684;2023-04-23T06:04:12;99675.22;;;12.33;100.00
28079;BME280;15388;42.238;24.684;2023-04-23T06:06:37;99673.91;;;12.47;100.00
28079;BME280;15388;42.238;24.684;2023-04-23T06:09:03;99680.19;;;12.56;100.00
28079;BME280;15388;42.238;24.684;2023-04-23T06:11:28;99674.22;;;12.82;100.00
28079;BME280;15388;42.238;24.684;2023-04-23T06:13:58;99683.78;;;13.03;100.00
28079;BME280;15388;42.238;24.684;2023-04-23T06:16:23;99680.94;;;12.86;100.00
28079;BME280;15388;42.238;24.684;2023-04-23T06:18:49;99679.75;;;12.60;100.00
28079;BME280;15388;42.238;24.684;2023-04-23T06:21:16;99670.31;;;12.66;100.00
28079;BME280;15388;42.238;24.684;2023-04-23T06:23:41;99680.38;;;12.82;100.00
28079;BME280;15388;42.238;24.684;2023-04-23T06:26:07;99676.63;;;13.03;100.00
28079;BME280;15388;42.238;24.684;2023-04-23T06:28:33;99678.72;;;13.28;100.00
28079;BME280;15388;42.238;24.684;2023-04-23T06:30:59;99683.09;;;13.47;100.00
28079;BME280;15388;42.238;24.684;2023-04-23T06:33:26;99680.13;;;13.68;100.00
28079;BME280;15388;42.238;24.684;2023-04-23T06:35:52;99678.97;;;13.89;100.00
28079;BME280;15388;42.238;24.684;2023-04-23T06:38:17;99685.13;;;14.08;100.00
28079;BME280;15388;42.238;24.684;2023-04-23T06:40:45;99676.22;;;14.25;100.00
28079;BME280;15388;42.238;24.684;2023-04-23T06:43:10;99685.56;;;14.21;98.29
28079;BME280;15388;42.238;24.684;2023-04-23T06:45:36;99679.59;;;14.27;96.91
28079;BME280;15388;42.238;24.684;2023-04-23T06:48:01;99682.00;;;14.39;97.58
28079;BME280;15388;42.238;24.684;2023-04-23T06:50:26;99682.75;;;14.58;98.37
28079;BME280;15388;42.238;24.684;2023-04-23T06:52:52;99678.16;;;14.76;97.63
28079;BME280;15388;42.238;24.684;2023-04-23T06:55:18;99680.97;;;14.93;96.45
28079;BME280;15388;42.238;24.684;2023-04-23T06:57:45;99679.16;;;15.10;94.83
28079;BME280;15388;42.238;24.684;2023-04-23T07:00:10;99675.00;;;15.24;94.27
28079;BME280;15388;42.238;24.684;2023-04-23T07:02:37;99677.88;;;15.39;93.17
28079;BME280;15388;42.238;24.684;2023-04-23T07:05:03;99678.91;;;15.47;93.42
28079;BME280;15388;42.238;24.684;2023-04-23T07:07:29;99682.13;;;15.59;92.76
28079;BME280;15388;42.238;24.684;2023-04-23T07:09:54;99683.13;;;15.66;92.19
28079;BME280;15388;42.238;24.684;2023-04-23T07:12:19;99678.94;;;15.80;92.41
28079;BME280;15388;42.238;24.684;2023-04-23T07:14:45;99679.13;;;15.87;92.16
28079;BME280;15388;42.238;24.684;2023-04-23T07:17:10;99676.75;;;16.00;90.85
28079;BME280;15388;42.238;24.684;2023-04-23T07:19:36;99682.16;;;16.09;90.50
28079;BME280;15388;42.238;24.684;2023-04-23T07:22:02;99683.31;;;16.14;89.77
28079;BME280;15388;42.238;24.684;2023-04-23T07:24:27;99679.44;;;16.17;88.21
28079;BME280;15388;42.238;24.684;2023-04-23T07:26:53;99677.06;;;16.22;87.49
28079;BME280;15388;42.238;24.684;2023-04-23T07:29:19;99679.13;;;16.03;84.30
28079;BME280;15388;42.238;24.684;2023-04-23T07:31:45;99670.88;;;15.72;86.84
28079;BME280;15388;42.238;24.684;2023-04-23T07:34:10;99673.69;;;15.37;88.19
28079;BME280;15388;42.238;24.684;2023-04-23T07:36:37;99677.00;;;15.14;90.20
28079;BME280;15388;42.238;24.684;2023-04-23T07:39:03;99678.69;;;15.23;90.96
28079;BME280;15388;42.238;24.684;2023-04-23T07:41:30;99672.63;;;15.13;92.13
28079;BME280;15388;42.238;24.684;2023-04-23T07:43:55;99665.59;;;15.12;94.16
28079;BME280;15388;42.238;24.684;2023-04-23T07:46:21;99667.59;;;15.10;95.19
28079;BME280;15388;42.238;24.684;2023-04-23T07:48:46;99666.63;;;15.19;94.09
28079;BME280;15388;42.238;24.684;2023-04-23T07:51:12;99670.97;;;15.12;94.37
28079;BME280;15388;42.238;24.684;2023-04-23T07:53:37;99660.63;;;15.34;93.69
28079;BME280;15388;42.238;24.684;2023-04-23T07:56:03;99664.28;;;15.24;93.05
28079;BME280;15388;42.238;24.684;2023-04-23T07:58:29;99657.28;;;15.40;93.60
28079;BME280;15388;42.238;24.684;2023-04-23T08:00:57;99658.47;;;15.54;92.29
28079;BME280;15388;42.238;24.684;2023-04-23T08:03:22;99660.47;;;15.77;93.08
28079;BME280;15388;42.238;24.684;2023-04-23T08:05:48;99665.00;;;15.93;91.51
28079;BME280;15388;42.238;24.684;2023-04-23T08:08:14;99660.00;;;15.98;89.35
28079;BME280;15388;42.238;24.684;2023-04-23T08:10:39;99656.78;;;16.20;90.87
28079;BME280;15388;42.238;24.684;2023-04-23T08:13:05;99657.94;;;16.25;91.24
28079;BME280;15388;42.238;24.684;2023-04-23T08:15:30;99654.53;;;16.57;90.69
28079;BME280;15388;42.238;24.684;2023-04-23T08:17:56;99661.53;;;16.66;85.53
28079;BME280;15388;42.238;24.684;2023-04-23T08:20:21;99658.19;;;16.64;85.89
28079;BME280;15388;42.238;24.684;2023-04-23T08:22:46;99652.75;;;16.80;85.29
28079;BME280;15388;42.238;24.684;2023-04-23T08:25:12;99647.81;;;16.92;82.89
28079;BME280;15388;42.238;24.684;2023-04-23T08:27:37;99655.69;;;17.02;82.94
28079;BME280;15388;42.238;24.684;2023-04-23T08:30:04;99648.56;;;17.18;85.41
28079;BME280;15388;42.238;24.684;2023-04-23T08:32:30;99656.09;;;17.46;85.73
28079;BME280;15388;42.238;24.684;2023-04-23T08:34:56;99657.47;;;17.42;82.13
28079;BME280;15388;42.238;24.684;2023-04-23T08:37:22;99648.56;;;17.41;79.38
28079;BME280;15388;42.238;24.684;2023-04-23T08:39:48;99651.69;;;17.53;81.11
28079;BME280;15388;42.238;24.684;2023-04-23T08:42:17;99644.50;;;17.69;82.40
28079;BME280;15388;42.238;24.684;2023-04-23T08:44:46;99651.63;;;16.66;81.10
28079;BME280;15388;42.238;24.684;2023-04-23T08:47:15;99644.53;;;17.05;82.82
28079;BME280;15388;42.238;24.684;2023-04-23T08:49:44;99642.56;;;17.08;80.18
28079;BME280;15388;42.238;24.684;2023-04-23T08:52:18;99639.78;;;17.24;81.60
28079;BME280;15388;42.238;24.684;2023-04-23T08:54:52;99631.41;;;17.42;78.92
28079;BME280;15388;42.238;24.684;2023-04-23T08:57:18;99636.38;;;17.54;79.69
28079;BME280;15388;42.238;24.684;2023-04-23T08:59:45;99640.09;;;17.91;76.56
28079;BME280;15388;42.238;24.684;2023-04-23T09:02:11;99631.84;;;18.08;72.80
28079;BME280;15388;42.238;24.684;2023-04-23T09:04:38;99631.53;;;17.88;68.91
28079;BME280;15388;42.238;24.684;2023-04-23T09:07:04;99627.00;;;17.88;69.48
28079;BME280;15388;42.238;24.684;2023-04-23T09:09:32;99622.16;;;18.22;72.35
28079;BME280;15388;42.238;24.684;2023-04-23T09:11:58;99617.03;;;18.57;71.49
28079;BME280;15388;42.238;24.684;2023-04-23T09:14:24;99615.97;;;18.89;69.83
28079;BME280;15388;42.238;24.684;2023-04-23T09:16:50;99618.81;;;19.02;69.07
28079;BME280;15388;42.238;24.684;2023-04-23T09:19:17;99615.31;;;18.87;67.48
28079;BME280;15388;42.238;24.684;2023-04-23T09:21:43;99618.19;;;18.85;63.22
28079;BME280;15388;42.238;24.684;2023-04-23T09:24:09;99607.22;;;18.87;64.62
28079;BME280;15388;42.238;24.684;2023-04-23T09:26:47;99609.50;;;19.05;63.70
28079;BME280;15388;42.238;24.684;2023-04-23T09:29:22;99600.50;;;19.13;64.83
28079;BME280;15388;42.238;24.684;2023-04-23T09:31:53;99600.88;;;19.31;62.70
28079;BME280;15388;42.238;24.684;2023-04-23T09:34:20;99598.41;;;19.58;61.89
28079;BME280;15388;42.238;24.684;2023-04-23T09:36:48;99598.53;;;19.72;60.14
28079;BME280;15388;42.238;24.684;2023-04-23T09:39:16;99601.97;;;19.88;57.94
28079;BME280;15388;42.238;24.684;2023-04-23T09:41:42;99590.63;;;19.99;56.41
28079;BME280;15388;42.238;24.684;2023-04-23T09:44:09;99601.72;;;20.04;54.86
28079;BME280;15388;42.238;24.684;2023-04-23T09:46:41;99594.97;;;20.22;55.11
28079;BME280;15388;42.238;24.684;2023-04-23T09:49:08;99595.66;;;20.38;55.27
28079;BME280;15388;42.238;24.684;2023-04-23T09:51:45;99584.53;;;20.61;53.60
28079;BME280;15388;42.238;24.684;2023-04-23T09:54:16;99584.94;;;20.65;54.21
28079;BME280;15388;42.238;24.684;2023-04-23T09:56:43;99581.09;;;20.87;53.20
28079;BME280;15388;42.238;24.684;2023-04-23T09:59:24;99578.16;;;20.82;52.95
28079;BME280;15388;42.238;24.684;2023-04-23T10:01:50;99568.22;;;20.90;53.06
28079;BME280;15388;42.238;24.684;2023-04-23T10:04:19;99570.16;;;21.09;51.28
28079;BME280;15388;42.238;24.684;2023-04-23T10:06:48;99566.00;;;21.20;50.64
28079;BME280;15388;42.238;24.684;2023-04-23T10:09:17;99570.38;;;21.35;50.69
28079;BME280;15388;42.238;24.684;2023-04-23T10:11:48;99568.13;;;21.52;48.84
28079;BME280;15388;42.238;24.684;2023-04-23T10:14:15;99563.09;;;21.56;47.98
28079;BME280;15388;42.238;24.684;2023-04-23T10:16:43;99568.28;;;21.44;46.10
28079;BME280;15388;42.238;24.684;2023-04-23T10:19:13;99554.97;;;21.15;46.74
28079;BME280;15388;42.238;24.684;2023-04-23T10:21:40;99557.69;;;21.35;47.38
28079;BME280;15388;42.238;24.684;2023-04-23T10:24:05;99546.88;;;21.35;47.54
28079;BME280;15388;42.238;24.684;2023-04-23T10:26:33;99545.41;;;21.53;47.40
28079;BME280;15388;42.238;24.684;2023-04-23T10:29:03;99538.31;;;21.72;47.74
28079;BME280;15388;42.238;24.684;2023-04-23T10:31:31;99539.78;;;21.75;47.62
28079;BME280;15388;42.238;24.684;2023-04-23T10:33:58;99526.84;;;21.91;47.75
28079;BME280;15388;42.238;24.684;2023-04-23T10:36:25;99525.97;;;22.04;48.09
28079;BME280;15388;42.238;24.684;2023-04-23T10:38:52;99521.28;;;22.31;45.97
28079;BME280;15388;42.238;24.684;2023-04-23T10:41:23;99515.69;;;22.26;45.33
28079;BME280;15388;42.238;24.684;2023-04-23T10:43:52;99512.34;;;22.24;47.60
28079;BME280;15388;42.238;24.684;2023-04-23T10:46:31;99516.31;;;22.28;46.43
28079;BME280;15388;42.238;24.684;2023-04-23T10:49:07;99508.78;;;22.30;46.96
28079;BME280;15388;42.238;24.684;2023-04-23T10:51:36;99503.78;;;22.27;46.43
28079;BME280;15388;42.238;24.684;2023-04-23T10:54:03;99495.34;;;22.56;47.34
28079;BME280;15388;42.238;24.684;2023-04-23T10:56:28;99495.56;;;22.54;45.52
28079;BME280;15388;42.238;24.684;2023-04-23T10:58:54;99504.97;;;22.84;46.12
28079;BME280;15388;42.238;24.684;2023-04-23T11:01:23;99494.69;;;22.93;44.06
28079;BME280;15388;42.238;24.684;2023-04-23T11:03:50;99498.75;;;23.09;41.22
28079;BME280;15388;42.238;24.684;2023-04-23T11:12:06;99478.19;;;23.52;41.77
28079;BME280;15388;42.238;24.684;2023-04-23T11:14:52;99478.94;;;23.59;41.48
28079;BME280;15388;42.238;24.684;2023-04-23T11:20:06;99476.66;;;23.37;40.55
28079;BME280;15388;42.238;24.684;2023-04-23T11:22:38;99474.47;;;23.46;40.03
28079;BME280;15388;42.238;24.684;2023-04-23T11:27:41;99472.53;;;23.53;40.92
28079;BME280;15388;42.238;24.684;2023-04-23T11:30:14;99472.84;;;23.64;40.91
28079;BME280;15388;42.238;24.684;2023-04-23T11:32:43;99462.78;;;23.83;42.28
28079;BME280;15388;42.238;24.684;2023-04-23T11:35:11;99469.16;;;23.77;39.25
28079;BME280;15388;42.238;24.684;2023-04-23T11:37:38;99468.41;;;23.88;39.50
28079;BME280;15388;42.238;24.684;2023-04-23T11:40:06;99468.47;;;24.00;40.29
28079;BME280;15388;42.238;24.684;2023-04-23T11:42:46;99463.41;;;24.04;40.35
28079;BME280;15388;42.238;24.684;2023-04-23T11:45:38;99467.06;;;24.16;39.71
28079;BME280;15388;42.238;24.684;2023-04-23T11:48:05;99467.19;;;24.22;39.68
28079;BME280;15388;42.238;24.684;2023-04-23T11:50:31;99458.94;;;24.28;39.83
28079;BME280;15388;42.238;24.684;2023-04-23T11:53:09;99459.16;;;24.27;38.83
28079;BME280;15388;42.238;24.684;2023-04-23T11:55:35;99456.16;;;24.35;38.16
28079;BME280;15388;42.238;24.684;2023-04-23T11:58:01;99453.38;;;24.54;37.27
28079;BME280;15388;42.238;24.684;2023-04-23T12:00:27;99449.44;;;24.19;35.99
28079;BME280;15388;42.238;24.684;2023-04-23T12:02:58;99440.53;;;24.12;36.57
28079;BME280;15388;42.238;24.684;2023-04-23T12:05:34;99432.47;;;24.24;38.29
28079;BME280;15388;42.238;24.684;2023-04-23T12:10:31;99435.03;;;24.19;39.39
28079;BME280;15388;42.238;24.684;2023-04-23T12:12:57;99423.13;;;24.32;39.05
28079;BME280;15388;42.238;24.684;2023-04-23T12:15:22;99425.34;;;24.53;38.29
28079;BME280;15388;42.238;24.684;2023-04-23T12:17:49;99423.94;;;24.63;38.84
28079;BME280;15388;42.238;24.684;2023-04-23T12:20:15;99419.25;;;24.70;37.28
28079;BME280;15388;42.238;24.684;2023-04-23T12:22:42;99417.59;;;24.81;37.03
28079;BME280;15388;42.238;24.684;2023-04-23T12:25:07;99410.06;;;24.95;36.13
28079;BME280;15388;42.238;24.684;2023-04-23T12:27:38;99404.63;;;25.19;35.39
28079;BME280;15388;42.238;24.684;2023-04-23T12:30:06;99402.28;;;25.35;35.11
28079;BME280;15388;42.238;24.684;2023-04-23T12:32:32;99398.91;;;25.56;33.96
28079;BME280;15388;42.238;24.684;2023-04-23T12:34:57;99395.00;;;25.64;34.74
28079;BME280;15388;42.238;24.684;2023-04-23T12:37:25;99398.69;;;25.46;32.51
28079;BME280;15388;42.238;24.684;2023-04-23T12:39:51;99398.69;;;25.58;32.02
28079;BME280;15388;42.238;24.684;2023-04-23T12:42:18;99391.25;;;25.65;34.05
28079;BME280;15388;42.238;24.684;2023-04-23T12:44:44;99381.03;;;25.73;34.23
28079;BME280;15388;42.238;24.684;2023-04-23T12:47:10;99377.13;;;25.98;33.19
28079;BME280;15388;42.238;24.684;2023-04-23T12:49:39;99383.41;;;25.98;33.58
28079;BME280;15388;42.238;24.684;2023-04-23T12:52:06;99375.59;;;26.02;32.39
28079;BME280;15388;42.238;24.684;2023-04-23T12:54:33;99380.06;;;26.08;32.57
28079;BME280;15388;42.238;24.684;2023-04-23T12:57:01;99371.88;;;26.08;32.23